createdAt,value
2018-04-26T00:02:36.664Z,20.43
2018-04-26T00:17:35.262Z,20.43
2018-04-26T00:32:37.289Z,20.36
2018-04-26T00:47:35.215Z,20.21
2018-04-26T01:02:37.958Z,20.10
2018-04-26T01:17:34.555Z,19.94
2018-04-26T01:32:34.553Z,19.76
2018-04-26T01:47:34.522Z,19.76
2018-04-26T02:02:42.746Z,19.67
2018-04-26T02:17:34.897Z,19.48
2018-04-26T02:32:34.828Z,19.43
2018-04-26T02:47:34.796Z,19.44
2018-04-26T03:02:34.067Z,19.31
2018-04-26T03:17:34.545Z,19.23
2018-04-26T03:32:36.432Z,19.16
2018-04-26T03:47:34.669Z,19.26
2018-04-26T04:02:46.285Z,20.43
2018-04-26T04:17:34.471Z,21.46
2018-04-26T04:32:34.419Z,22.41
2018-04-26T04:47:35.212Z,23.10
2018-04-26T05:02:35.382Z,23.70
2018-04-26T05:17:37.840Z,24.33
2018-04-26T05:32:34.754Z,24.85
2018-04-26T05:47:34.746Z,25.46
2018-04-26T06:02:34.737Z,25.62
2018-04-26T06:17:35.082Z,25.99
2018-04-26T06:32:35.590Z,26.44
2018-04-26T06:47:35.022Z,27.36
2018-04-26T07:02:35.048Z,28.46
2018-04-26T07:17:35.524Z,29.31
2018-04-26T07:32:36.443Z,30.53
2018-04-26T07:47:35.318Z,31.34
2018-04-26T08:02:35.346Z,31.65
2018-04-26T08:17:35.770Z,32.08
2018-04-26T08:32:34.699Z,32.82
2018-04-26T08:47:34.674Z,32.90
2018-04-26T09:02:36.732Z,33.09
2018-04-26T09:17:35.081Z,33.28
2018-04-26T09:32:36.996Z,33.73
2018-04-26T09:47:34.907Z,34.38
2018-04-26T10:02:40.478Z,34.61
2018-04-26T10:17:36.280Z,33.31
2018-04-26T10:32:38.108Z,32.52
2018-04-26T10:47:35.305Z,31.79
2018-04-26T11:02:35.289Z,31.64
2018-04-26T11:17:34.589Z,32.35
2018-04-26T11:32:36.641Z,32.72
2018-04-26T11:47:34.634Z,32.60
2018-04-26T12:02:36.680Z,32.15
2018-04-26T12:17:34.966Z,30.95
2018-04-26T12:32:34.955Z,29.86
2018-04-26T12:47:35.965Z,29.34
2018-04-26T13:02:39.920Z,28.89
2018-04-26T13:17:35.037Z,28.22
2018-04-26T13:32:35.235Z,27.94
2018-04-26T13:47:35.207Z,28.00
2018-04-26T14:02:35.229Z,27.97
2018-04-26T14:17:34.947Z,28.29
2018-04-26T14:32:34.710Z,28.54
2018-04-26T14:47:34.652Z,28.49
2018-04-26T15:02:36.757Z,28.38
2018-04-26T15:17:34.911Z,28.36
2018-04-26T15:32:34.950Z,28.22
2018-04-26T15:47:37.039Z,28.09
2018-04-26T16:17:52.756Z,27.57
2018-04-26T16:32:51.164Z,27.10
2018-04-26T16:47:35.406Z,26.76
2018-04-26T17:02:35.407Z,26.48
2018-04-26T17:17:34.336Z,26.45
2018-04-26T17:32:35.065Z,26.31
2018-04-26T17:47:35.055Z,26.15
2018-04-26T18:02:35.384Z,26.03
2018-04-26T18:17:34.682Z,25.87
2018-04-26T18:32:35.182Z,25.76
2018-04-26T18:47:34.808Z,24.93
2018-04-26T19:02:36.839Z,24.16
2018-04-26T19:17:35.253Z,23.45
2018-04-26T19:32:34.198Z,22.85
2018-04-26T19:47:35.210Z,22.42
2018-04-26T20:02:34.954Z,22.14
2018-04-26T20:17:36.532Z,21.93
2018-04-26T20:32:34.497Z,21.69
2018-04-26T20:47:34.490Z,21.43
2018-04-26T21:02:34.151Z,21.13
2018-04-26T21:17:34.829Z,20.94
2018-04-26T21:32:34.992Z,20.82
2018-04-26T21:47:34.827Z,20.66
2018-04-26T22:02:34.112Z,20.51
2018-04-26T22:17:41.269Z,20.42
2018-04-26T22:32:35.208Z,20.31
2018-04-26T22:47:35.151Z,20.21
2018-04-26T23:02:34.446Z,20.06
2018-04-26T23:17:34.466Z,19.89
2018-04-26T23:32:36.439Z,19.77
2018-04-26T23:47:34.497Z,19.54
